Oud-Turnhout, Belgium
Current Conditions -  °F | °C
As of 3:55 AM on Saturday 22 Nov 2014 (Local Time) from EHGR Reporting Station
Haze Haze  
Wind Chill: 36°   Ceiling: Unl
Heat Index: 39°   Visibility: 4mi
Dew Point: 39°   Wind: 5mph
Humidity: 100%   Direction: 130°SE
Pressure: 30.03"   Gusts: NA
Location:  51.32°N, 4.98°E
Report Text: EHGR 220255Z AUTO 13004KT 6000 BR NCD 04/04 Q1017 WHT
Loading
Personal Weather Stations






























Interactive Weather Map New forecast layout! Learn more

10-Day Weather Forecast

Advertisements
Track Severe Weather on mobile